sensor_id;sensor_type;location;lat;lon;timestamp;temperature;humidity
48488;DHT22;34289;48.572;13.378;2023-11-21T00:02:13;2.40;99.90
48488;DHT22;34289;48.572;13.378;2023-11-21T00:04:39;2.00;99.90
48488;DHT22;34289;48.572;13.378;2023-11-21T00:07:04;2.50;99.90
48488;DHT22;34289;48.572;13.378;2023-11-21T00:09:31;2.70;99.90
48488;DHT22;34289;48.572;13.378;2023-11-21T00:11:57;2.90;99.90
48488;DHT22;34289;48.572;13.378;2023-11-21T00:14:24;2.90;99.90
48488;DHT22;34289;48.572;13.378;2023-11-21T00:16:50;2.60;99.90
48488;DHT22;34289;48.572;13.378;2023-11-21T00:19:16;2.90;99.90
48488;DHT22;34289;48.572;13.378;2023-11-21T00:21:42;2.90;99.90
48488;DHT22;34289;48.572;13.378;2023-11-21T00:24:10;2.90;99.90
48488;DHT22;34289;48.572;13.378;2023-11-21T00:26:35;2.80;99.90
48488;DHT22;34289;48.572;13.378;2023-11-21T00:29:03;2.80;99.90
48488;DHT22;34289;48.572;13.378;2023-11-21T00:31:29;3.00;99.90
48488;DHT22;34289;48.572;13.378;2023-11-21T00:33:56;2.90;99.90
48488;DHT22;34289;48.572;13.378;2023-11-21T00:36:21;3.00;99.90
48488;DHT22;34289;48.572;13.378;2023-11-21T00:38:47;3.30;99.90
48488;DHT22;34289;48.572;13.378;2023-11-21T00:41:14;3.00;99.90
48488;DHT22;34289;48.572;13.378;2023-11-21T00:43:39;3.10;99.90
48488;DHT22;34289;48.572;13.378;2023-11-21T00:46:05;3.00;99.90
48488;DHT22;34289;48.572;13.378;2023-11-21T00:48:33;2.80;99.90
48488;DHT22;34289;48.572;13.378;2023-11-21T00:50:59;2.90;99.90
48488;DHT22;34289;48.572;13.378;2023-11-21T00:53:24;3.10;99.90
48488;DHT22;34289;48.572;13.378;2023-11-21T00:55:53;2.90;99.90
48488;DHT22;34289;48.572;13.378;2023-11-21T00:58:26;3.00;99.90
48488;DHT22;34289;48.572;13.378;2023-11-21T01:00:52;2.90;99.90
48488;DHT22;34289;48.572;13.378;2023-11-21T01:03:18;3.10;99.90
48488;DHT22;34289;48.572;13.378;2023-11-21T01:05:44;3.10;99.90
48488;DHT22;34289;48.572;13.378;2023-11-21T01:08:10;3.30;99.90
48488;DHT22;34289;48.572;13.378;2023-11-21T01:10:36;3.10;99.90
48488;DHT22;34289;48.572;13.378;2023-11-21T01:13:02;2.90;99.90
48488;DHT22;34289;48.572;13.378;2023-11-21T01:15:29;3.60;99.90
48488;DHT22;34289;48.572;13.378;2023-11-21T01:17:55;2.70;99.90
48488;DHT22;34289;48.572;13.378;2023-11-21T01:20:20;2.60;99.90
48488;DHT22;34289;48.572;13.378;2023-11-21T01:22:46;3.10;99.90
48488;DHT22;34289;48.572;13.378;2023-11-21T01:25:14;2.80;99.90
48488;DHT22;34289;48.572;13.378;2023-11-21T01:27:42;2.80;99.90
48488;DHT22;34289;48.572;13.378;2023-11-21T01:30:10;3.00;99.90
48488;DHT22;34289;48.572;13.378;2023-11-21T01:32:37;3.00;99.90
48488;DHT22;34289;48.572;13.378;2023-11-21T01:35:03;3.30;99.90
48488;DHT22;34289;48.572;13.378;2023-11-21T01:37:30;3.20;99.90
48488;DHT22;34289;48.572;13.378;2023-11-21T01:39:56;3.30;99.90
48488;DHT22;34289;48.572;13.378;2023-11-21T01:42:22;3.20;99.90
48488;DHT22;34289;48.572;13.378;2023-11-21T01:44:47;3.30;99.90
48488;DHT22;34289;48.572;13.378;2023-11-21T01:47:14;3.10;99.90
48488;DHT22;34289;48.572;13.378;2023-11-21T01:49:45;3.10;99.90
48488;DHT22;34289;48.572;13.378;2023-11-21T01:52:12;2.90;99.90
48488;DHT22;34289;48.572;13.378;2023-11-21T01:54:38;3.10;99.90
48488;DHT22;34289;48.572;13.378;2023-11-21T01:57:05;3.30;99.90
48488;DHT22;34289;48.572;13.378;2023-11-21T01:59:36;3.30;99.90
48488;DHT22;34289;48.572;13.378;2023-11-21T02:02:06;3.40;99.90
48488;DHT22;34289;48.572;13.378;2023-11-21T02:04:36;3.50;99.90
48488;DHT22;34289;48.572;13.378;2023-11-21T02:07:02;3.60;99.90
48488;DHT22;34289;48.572;13.378;2023-11-21T02:09:31;3.60;99.90
48488;DHT22;34289;48.572;13.378;2023-11-21T02:11:58;3.70;99.90
48488;DHT22;34289;48.572;13.378;2023-11-21T02:14:28;3.80;99.90
48488;DHT22;34289;48.572;13.378;2023-11-21T02:16:54;3.80;99.90
48488;DHT22;34289;48.572;13.378;2023-11-21T02:19:23;3.80;99.90
48488;DHT22;34289;48.572;13.378;2023-11-21T02:21:52;3.60;99.90
48488;DHT22;34289;48.572;13.378;2023-11-21T02:24:22;3.50;99.90
48488;DHT22;34289;48.572;13.378;2023-11-21T02:26:51;3.60;99.90
48488;DHT22;34289;48.572;13.378;2023-11-21T02:29:17;3.60;99.90
48488;DHT22;34289;48.572;13.378;2023-11-21T02:31:45;3.60;99.90
48488;DHT22;34289;48.572;13.378;2023-11-21T02:34:16;3.40;99.90
48488;DHT22;34289;48.572;13.378;2023-11-21T02:36:43;3.50;99.90
48488;DHT22;34289;48.572;13.378;2023-11-21T02:39:10;3.50;99.90
48488;DHT22;34289;48.572;13.378;2023-11-21T02:41:39;3.50;99.90
48488;DHT22;34289;48.572;13.378;2023-11-21T02:44:07;3.80;99.90
48488;DHT22;34289;48.572;13.378;2023-11-21T02:46:33;3.80;99.90
48488;DHT22;34289;48.572;13.378;2023-11-21T02:49:05;3.80;99.90
48488;DHT22;34289;48.572;13.378;2023-11-21T02:51:32;3.90;99.90
48488;DHT22;34289;48.572;13.378;2023-11-21T02:53:58;3.90;99.90
48488;DHT22;34289;48.572;13.378;2023-11-21T02:56:27;4.00;99.90
48488;DHT22;34289;48.572;13.378;2023-11-21T02:58:55;4.00;99.90
48488;DHT22;34289;48.572;13.378;2023-11-21T03:01:21;4.20;99.90
48488;DHT22;34289;48.572;13.378;2023-11-21T03:03:46;3.90;99.90
48488;DHT22;34289;48.572;13.378;2023-11-21T03:06:15;4.00;99.90
48488;DHT22;34289;48.572;13.378;2023-11-21T03:08:41;3.80;99.90
48488;DHT22;34289;48.572;13.378;2023-11-21T03:11:07;3.80;99.90
48488;DHT22;34289;48.572;13.378;2023-11-21T03:13:33;3.90;99.90
48488;DHT22;34289;48.572;13.378;2023-11-21T03:15:59;3.90;99.90
48488;DHT22;34289;48.572;13.378;2023-11-21T03:18:25;4.00;99.90
48488;DHT22;34289;48.572;13.378;2023-11-21T03:20:52;4.60;99.90
48488;DHT22;34289;48.572;13.378;2023-11-21T03:23:20;4.00;99.90
48488;DHT22;34289;48.572;13.378;2023-11-21T03:25:46;4.20;99.90
48488;DHT22;34289;48.572;13.378;2023-11-21T03:28:12;4.20;99.90
48488;DHT22;34289;48.572;13.378;2023-11-21T03:30:38;5.10;99.90
48488;DHT22;34289;48.572;13.378;2023-11-21T03:33:04;4.10;99.90
48488;DHT22;34289;48.572;13.378;2023-11-21T03:35:29;4.40;99.90
48488;DHT22;34289;48.572;13.378;2023-11-21T03:37:55;4.10;99.90
48488;DHT22;34289;48.572;13.378;2023-11-21T03:40:21;4.20;99.90
48488;DHT22;34289;48.572;13.378;2023-11-21T03:42:47;4.10;99.90
48488;DHT22;34289;48.572;13.378;2023-11-21T03:45:13;4.20;99.90
48488;DHT22;34289;48.572;13.378;2023-11-21T03:47:41;4.10;99.90
48488;DHT22;34289;48.572;13.378;2023-11-21T03:50:07;4.20;99.90
48488;DHT22;34289;48.572;13.378;2023-11-21T03:52:34;4.30;99.90
48488;DHT22;34289;48.572;13.378;2023-11-21T03:55:00;4.30;99.90
48488;DHT22;34289;48.572;13.378;2023-11-21T03:57:26;4.30;99.90
48488;DHT22;34289;48.572;13.378;2023-11-21T03:59:53;4.10;99.90
48488;DHT22;34289;48.572;13.378;2023-11-21T04:02:18;4.30;99.90
48488;DHT22;34289;48.572;13.378;2023-11-21T04:04:44;4.70;99.90
48488;DHT22;34289;48.572;13.378;2023-11-21T04:07:09;4.90;99.90
48488;DHT22;34289;48.572;13.378;2023-11-21T04:09:36;4.20;99.90
48488;DHT22;34289;48.572;13.378;2023-11-21T04:12:02;4.10;99.90
48488;DHT22;34289;48.572;13.378;2023-11-21T04:14:28;4.20;99.90
48488;DHT22;34289;48.572;13.378;2023-11-21T04:16:54;4.30;99.90
48488;DHT22;34289;48.572;13.378;2023-11-21T04:19:19;4.40;99.90
48488;DHT22;34289;48.572;13.378;2023-11-21T04:21:45;4.30;99.90
48488;DHT22;34289;48.572;13.378;2023-11-21T04:24:11;4.40;99.90
48488;DHT22;34289;48.572;13.378;2023-11-21T04:26:37;4.30;99.90
48488;DHT22;34289;48.572;13.378;2023-11-21T04:29:03;4.10;99.90
48488;DHT22;34289;48.572;13.378;2023-11-21T04:31:30;4.10;99.90
48488;DHT22;34289;48.572;13.378;2023-11-21T04:33:55;4.30;99.90
48488;DHT22;34289;48.572;13.378;2023-11-21T04:36:21;4.30;99.90
48488;DHT22;34289;48.572;13.378;2023-11-21T04:38:46;4.30;99.90
48488;DHT22;34289;48.572;13.378;2023-11-21T04:41:12;4.50;99.90
48488;DHT22;34289;48.572;13.378;2023-11-21T04:43:37;4.40;99.90
48488;DHT22;34289;48.572;13.378;2023-11-21T04:46:03;4.40;99.90
48488;DHT22;34289;48.572;13.378;2023-11-21T04:48:29;4.60;99.90
48488;DHT22;34289;48.572;13.378;2023-11-21T04:50:55;4.70;99.90
48488;DHT22;34289;48.572;13.378;2023-11-21T04:53:20;4.50;99.90
48488;DHT22;34289;48.572;13.378;2023-11-21T04:55:46;4.50;99.90
48488;DHT22;34289;48.572;13.378;2023-11-21T04:58:15;4.60;99.90
48488;DHT22;34289;48.572;13.378;2023-11-21T05:00:40;4.50;99.90
48488;DHT22;34289;48.572;13.378;2023-11-21T05:03:07;4.40;99.90
48488;DHT22;34289;48.572;13.378;2023-11-21T05:05:33;4.30;99.90
48488;DHT22;34289;48.572;13.378;2023-11-21T05:08:01;4.40;99.90
48488;DHT22;34289;48.572;13.378;2023-11-21T05:10:27;4.40;99.90
48488;DHT22;34289;48.572;13.378;2023-11-21T05:12:54;4.60;99.90
48488;DHT22;34289;48.572;13.378;2023-11-21T05:15:21;4.60;99.90
48488;DHT22;34289;48.572;13.378;2023-11-21T05:17:47;4.70;99.90
48488;DHT22;34289;48.572;13.378;2023-11-21T05:20:17;5.00;99.90
48488;DHT22;34289;48.572;13.378;2023-11-21T05:22:49;4.90;99.90
48488;DHT22;34289;48.572;13.378;2023-11-21T05:25:15;4.80;99.90
48488;DHT22;34289;48.572;13.378;2023-11-21T05:27:42;5.00;99.90
48488;DHT22;34289;48.572;13.378;2023-11-21T05:30:08;5.10;99.90
48488;DHT22;34289;48.572;13.378;2023-11-21T05:32:38;4.90;99.90
48488;DHT22;34289;48.572;13.378;2023-11-21T05:35:04;5.10;99.90
48488;DHT22;34289;48.572;13.378;2023-11-21T05:37:35;4.90;99.90
48488;DHT22;34289;48.572;13.378;2023-11-21T05:40:01;5.00;99.90
48488;DHT22;34289;48.572;13.378;2023-11-21T05:42:34;5.00;99.90
48488;DHT22;34289;48.572;13.378;2023-11-21T05:45:04;5.30;99.90
48488;DHT22;34289;48.572;13.378;2023-11-21T05:47:40;4.90;99.90
48488;DHT22;34289;48.572;13.378;2023-11-21T05:50:08;4.80;99.90
48488;DHT22;34289;48.572;13.378;2023-11-21T05:52:41;4.80;99.90
48488;DHT22;34289;48.572;13.378;2023-11-21T05:55:11;4.90;99.90
48488;DHT22;34289;48.572;13.378;2023-11-21T05:57:37;5.00;99.90
48488;DHT22;34289;48.572;13.378;2023-11-21T06:00:11;5.30;99.90
48488;DHT22;34289;48.572;13.378;2023-11-21T06:02:48;5.20;99.90
48488;DHT22;34289;48.572;13.378;2023-11-21T06:05:17;5.00;99.90
48488;DHT22;34289;48.572;13.378;2023-11-21T06:07:43;4.90;99.90
48488;DHT22;34289;48.572;13.378;2023-11-21T06:10:11;4.90;99.90
48488;DHT22;34289;48.572;13.378;2023-11-21T06:12:40;5.00;99.90
48488;DHT22;34289;48.572;13.378;2023-11-21T06:15:08;4.80;99.90
48488;DHT22;34289;48.572;13.378;2023-11-21T06:17:35;4.80;99.90
48488;DHT22;34289;48.572;13.378;2023-11-21T06:20:11;5.00;99.90
48488;DHT22;34289;48.572;13.378;2023-11-21T06:22:40;4.90;99.90
48488;DHT22;34289;48.572;13.378;2023-11-21T06:25:07;4.90;99.90
48488;DHT22;34289;48.572;13.378;2023-11-21T06:27:34;5.00;99.90
48488;DHT22;34289;48.572;13.378;2023-11-21T06:30:01;5.10;99.90
48488;DHT22;34289;48.572;13.378;2023-11-21T06:32:27;5.10;99.90
48488;DHT22;34289;48.572;13.378;2023-11-21T06:34:55;5.50;99.90
48488;DHT22;34289;48.572;13.378;2023-11-21T06:37:21;5.20;99.90
48488;DHT22;34289;48.572;13.378;2023-11-21T06:39:49;5.20;99.90
48488;DHT22;34289;48.572;13.378;2023-11-21T06:42:14;6.00;99.90
48488;DHT22;34289;48.572;13.378;2023-11-21T06:44:41;5.20;99.90
48488;DHT22;34289;48.572;13.378;2023-11-21T06:47:07;5.20;99.90
48488;DHT22;34289;48.572;13.378;2023-11-21T06:49:32;5.20;99.90
48488;DHT22;34289;48.572;13.378;2023-11-21T06:51:58;5.30;99.90
48488;DHT22;34289;48.572;13.378;2023-11-21T06:54:24;6.10;99.90
48488;DHT22;34289;48.572;13.378;2023-11-21T06:56:50;5.40;99.90
48488;DHT22;34289;48.572;13.378;2023-11-21T06:59:16;5.70;99.90
48488;DHT22;34289;48.572;13.378;2023-11-21T07:01:41;5.60;99.90
48488;DHT22;34289;48.572;13.378;2023-11-21T07:04:07;5.60;99.90
48488;DHT22;34289;48.572;13.378;2023-11-21T07:06:34;5.50;99.90
48488;DHT22;34289;48.572;13.378;2023-11-21T07:09:00;6.00;99.90
48488;DHT22;34289;48.572;13.378;2023-11-21T07:11:27;5.70;99.90
48488;DHT22;34289;48.572;13.378;2023-11-21T07:13:52;5.70;99.90
48488;DHT22;34289;48.572;13.378;2023-11-21T07:16:18;6.60;99.90
48488;DHT22;34289;48.572;13.378;2023-11-21T07:18:44;5.50;99.90
48488;DHT22;34289;48.572;13.378;2023-11-21T07:21:10;5.50;99.90
48488;DHT22;34289;48.572;13.378;2023-11-21T07:23:37;5.80;99.90
48488;DHT22;34289;48.572;13.378;2023-11-21T07:26:03;5.80;99.90
48488;DHT22;34289;48.572;13.378;2023-11-21T07:28:34;5.80;99.90
48488;DHT22;34289;48.572;13.378;2023-11-21T07:31:01;6.10;99.90
48488;DHT22;34289;48.572;13.378;2023-11-21T07:33:26;5.80;99.90
48488;DHT22;34289;48.572;13.378;2023-11-21T07:35:52;5.80;99.90
48488;DHT22;34289;48.572;13.378;2023-11-21T07:38:18;5.80;99.90
48488;DHT22;34289;48.572;13.378;2023-11-21T07:40:43;5.80;99.90
48488;DHT22;34289;48.572;13.378;2023-11-21T07:43:09;5.70;99.90
48488;DHT22;34289;48.572;13.378;2023-11-21T07:45:36;5.70;99.90
48488;DHT22;34289;48.572;13.378;2023-11-21T07:48:04;5.60;99.90
48488;DHT22;34289;48.572;13.378;2023-11-21T07:50:31;5.90;99.90
48488;DHT22;34289;48.572;13.378;2023-11-21T07:52:58;6.20;99.90
48488;DHT22;34289;48.572;13.378;2023-11-21T07:55:23;5.80;99.90
48488;DHT22;34289;48.572;13.378;2023-11-21T07:57:50;5.70;99.90
48488;DHT22;34289;48.572;13.378;2023-11-21T08:00:16;5.80;99.90
48488;DHT22;34289;48.572;13.378;2023-11-21T08:02:45;5.90;99.90
48488;DHT22;34289;48.572;13.378;2023-11-21T08:05:12;5.80;99.90
48488;DHT22;34289;48.572;13.378;2023-11-21T08:07:38;5.90;99.90
48488;DHT22;34289;48.572;13.378;2023-11-21T08:10:04;6.00;99.90
48488;DHT22;34289;48.572;13.378;2023-11-21T08:12:30;6.00;99.90
48488;DHT22;34289;48.572;13.378;2023-11-21T08:14:56;6.00;99.90
48488;DHT22;34289;48.572;13.378;2023-11-21T08:17:21;6.30;99.90
48488;DHT22;34289;48.572;13.378;2023-11-21T08:19:48;6.10;99.90
48488;DHT22;34289;48.572;13.378;2023-11-21T08:22:17;6.10;99.90
48488;DHT22;34289;48.572;13.378;2023-11-21T08:24:43;6.70;99.90
48488;DHT22;34289;48.572;13.378;2023-11-21T08:27:09;6.40;99.90
48488;DHT22;34289;48.572;13.378;2023-11-21T08:29:35;7.20;99.90
48488;DHT22;34289;48.572;13.378;2023-11-21T08:32:02;6.20;99.90
48488;DHT22;34289;48.572;13.378;2023-11-21T08:34:28;6.50;99.90
48488;DHT22;34289;48.572;13.378;2023-11-21T08:36:54;6.30;99.90
48488;DHT22;34289;48.572;13.378;2023-11-21T08:39:21;6.30;99.90
48488;DHT22;34289;48.572;13.378;2023-11-21T08:41:50;7.30;99.90
48488;DHT22;34289;48.572;13.378;2023-11-21T08:44:16;6.30;99.90
48488;DHT22;34289;48.572;13.378;2023-11-21T08:46:44;7.00;99.90
48488;DHT22;34289;48.572;13.378;2023-11-21T08:49:11;7.20;99.90
48488;DHT22;34289;48.572;13.378;2023-11-21T08:51:37;6.70;99.90
48488;DHT22;34289;48.572;13.378;2023-11-21T08:54:03;6.90;99.90
48488;DHT22;34289;48.572;13.378;2023-11-21T08:56:33;7.10;99.90
48488;DHT22;34289;48.572;13.378;2023-11-21T08:58:58;6.90;99.90
48488;DHT22;34289;48.572;13.378;2023-11-21T09:01:27;7.00;99.90
48488;DHT22;34289;48.572;13.378;2023-11-21T09:03:53;7.90;99.90
48488;DHT22;34289;48.572;13.378;2023-11-21T09:06:19;6.90;99.90
48488;DHT22;34289;48.572;13.378;2023-11-21T09:08:44;7.30;99.90
48488;DHT22;34289;48.572;13.378;2023-11-21T09:11:10;7.80;99.90
48488;DHT22;34289;48.572;13.378;2023-11-21T09:13:36;7.70;99.90
48488;DHT22;34289;48.572;13.378;2023-11-21T09:16:02;7.60;99.90
48488;DHT22;34289;48.572;13.378;2023-11-21T09:18:27;7.80;99.90
48488;DHT22;34289;48.572;13.378;2023-11-21T09:20:53;7.80;99.90
48488;DHT22;34289;48.572;13.378;2023-11-21T09:23:18;8.40;99.90
48488;DHT22;34289;48.572;13.378;2023-11-21T09:25:44;7.70;99.90
48488;DHT22;34289;48.572;13.378;2023-11-21T09:28:11;7.60;99.90
48488;DHT22;34289;48.572;13.378;2023-11-21T09:30:37;7.60;99.90
48488;DHT22;34289;48.572;13.378;2023-11-21T09:33:04;7.40;99.90
48488;DHT22;34289;48.572;13.378;2023-11-21T09:35:38;7.40;99.90
48488;DHT22;34289;48.572;13.378;2023-11-21T09:38:04;7.60;99.90
48488;DHT22;34289;48.572;13.378;2023-11-21T09:40:37;7.70;99.90
48488;DHT22;34289;48.572;13.378;2023-11-21T09:43:17;7.60;99.90
48488;DHT22;34289;48.572;13.378;2023-11-21T09:45:48;7.70;99.90
48488;DHT22;34289;48.572;13.378;2023-11-21T09:48:17;7.80;99.90
48488;DHT22;34289;48.572;13.378;2023-11-21T09:50:43;7.70;99.90
48488;DHT22;34289;48.572;13.378;2023-11-21T09:53:11;7.60;99.90
48488;DHT22;34289;48.572;13.378;2023-11-21T09:55:43;7.80;99.90
48488;DHT22;34289;48.572;13.378;2023-11-21T09:58:10;8.70;99.90
48488;DHT22;34289;48.572;13.378;2023-11-21T10:00:40;8.50;99.90
48488;DHT22;34289;48.572;13.378;2023-11-21T10:03:06;7.90;99.90
48488;DHT22;34289;48.572;13.378;2023-11-21T10:05:32;8.10;99.90
48488;DHT22;34289;48.572;13.378;2023-11-21T10:08:00;7.90;99.90
48488;DHT22;34289;48.572;13.378;2023-11-21T10:10:27;7.80;99.90
48488;DHT22;34289;48.572;13.378;2023-11-21T10:13:01;8.30;99.90
48488;DHT22;34289;48.572;13.378;2023-11-21T10:15:31;8.30;99.90
48488;DHT22;34289;48.572;13.378;2023-11-21T10:18:04;8.30;99.90
48488;DHT22;34289;48.572;13.378;2023-11-21T10:20:32;8.30;99.90
48488;DHT22;34289;48.572;13.378;2023-11-21T10:22:59;8.70;99.90
48488;DHT22;34289;48.572;13.378;2023-11-21T10:25:27;8.40;99.90
48488;DHT22;34289;48.572;13.378;2023-11-21T10:27:58;8.40;99.90
48488;DHT22;34289;48.572;13.378;2023-11-21T10:30:36;8.50;99.90
48488;DHT22;34289;48.572;13.378;2023-11-21T10:33:06;8.60;99.90
48488;DHT22;34289;48.572;13.378;2023-11-21T10:35:46;8.50;99.90
48488;DHT22;34289;48.572;13.378;2023-11-21T10:38:20;8.80;99.90
48488;DHT22;34289;48.572;13.378;2023-11-21T10:40:51;8.40;99.90
48488;DHT22;34289;48.572;13.378;2023-11-21T10:43:17;8.50;99.90
48488;DHT22;34289;48.572;13.378;2023-11-21T10:45:44;8.50;99.90
48488;DHT22;34289;48.572;13.378;2023-11-21T10:48:12;8.60;99.90
48488;DHT22;34289;48.572;13.378;2023-11-21T10:50:41;8.50;99.90
48488;DHT22;34289;48.572;13.378;2023-11-21T10:53:06;8.50;99.90
48488;DHT22;34289;48.572;13.378;2023-11-21T10:55:33;8.40;99.90
48488;DHT22;34289;48.572;13.378;2023-11-21T10:58:02;8.40;99.90
48488;DHT22;34289;48.572;13.378;2023-11-21T11:00:31;8.50;99.90
48488;DHT22;34289;48.572;13.378;2023-11-21T11:02:57;8.60;99.90
48488;DHT22;34289;48.572;13.378;2023-11-21T11:05:26;8.70;99.90
48488;DHT22;34289;48.572;13.378;2023-11-21T11:10:29;8.80;99.90
48488;DHT22;34289;48.572;13.378;2023-11-21T11:12:56;9.00;99.90
48488;DHT22;34289;48.572;13.378;2023-11-21T11:15:26;9.00;99.90
48488;DHT22;34289;48.572;13.378;2023-11-21T11:17:53;9.20;99.90
48488;DHT22;34289;48.572;13.378;2023-11-21T11:20:29;8.90;99.90
48488;DHT22;34289;48.572;13.378;2023-11-21T11:26:06;9.60;99.90
48488;DHT22;34289;48.572;13.378;2023-11-21T11:28:43;9.10;99.90
48488;DHT22;34289;48.572;13.378;2023-11-21T11:34:14;9.10;99.90
48488;DHT22;34289;48.572;13.378;2023-11-21T11:36:54;9.90;99.90
48488;DHT22;34289;48.572;13.378;2023-11-21T11:39:28;9.20;99.90
48488;DHT22;34289;48.572;13.378;2023-11-21T11:41:56;9.30;99.90
48488;DHT22;34289;48.572;13.378;2023-11-21T11:47:24;9.50;99.90
48488;DHT22;34289;48.572;13.378;2023-11-21T11:50:12;9.40;99.90
48488;DHT22;34289;48.572;13.378;2023-11-21T11:52:46;9.40;99.90
48488;DHT22;34289;48.572;13.378;2023-11-21T11:55:16;9.40;99.90
48488;DHT22;34289;48.572;13.378;2023-11-21T11:57:47;9.10;99.90
48488;DHT22;34289;48.572;13.378;2023-11-21T12:02:50;9.10;99.90
48488;DHT22;34289;48.572;13.378;2023-11-21T12:05:23;8.80;99.90
48488;DHT22;34289;48.572;13.378;2023-11-21T12:07:52;9.50;99.90
48488;DHT22;34289;48.572;13.378;2023-11-21T12:10:21;9.00;99.90
48488;DHT22;34289;48.572;13.378;2023-11-21T12:12:55;9.60;99.90
48488;DHT22;34289;48.572;13.378;2023-11-21T12:15:22;9.00;99.90
48488;DHT22;34289;48.572;13.378;2023-11-21T12:17:49;9.00;99.90
48488;DHT22;34289;48.572;13.378;2023-11-21T12:20:18;8.90;99.90
48488;DHT22;34289;48.572;13.378;2023-11-21T12:22:48;8.70;99.90
48488;DHT22;34289;48.572;13.378;2023-11-21T12:25:18;8.70;99.90
48488;DHT22;34289;48.572;13.378;2023-11-21T12:27:48;8.60;99.90
48488;DHT22;34289;48.572;13.378;2023-11-21T12:30:21;8.60;99.90
48488;DHT22;34289;48.572;13.378;2023-11-21T12:32:54;8.70;99.90
48488;DHT22;34289;48.572;13.378;2023-11-21T12:35:23;9.40;99.90
48488;DHT22;34289;48.572;13.378;2023-11-21T12:37:51;9.20;99.90
48488;DHT22;34289;48.572;13.378;2023-11-21T12:40:18;8.90;99.90
48488;DHT22;34289;48.572;13.378;2023-11-21T12:42:48;8.90;99.90
48488;DHT22;34289;48.572;13.378;2023-11-21T12:48:04;9.10;99.90
48488;DHT22;34289;48.572;13.378;2023-11-21T12:50:34;9.10;99.90
48488;DHT22;34289;48.572;13.378;2023-11-21T12:53:07;8.90;99.90
48488;DHT22;34289;48.572;13.378;2023-11-21T12:55:37;9.00;99.90
48488;DHT22;34289;48.572;13.378;2023-11-21T12:58:05;9.30;99.90
48488;DHT22;34289;48.572;13.378;2023-11-21T13:00:40;9.10;99.90
48488;DHT22;34289;48.572;13.378;2023-11-21T13:03:08;9.10;99.90
48488;DHT22;34289;48.572;13.378;2023-11-21T13:05:36;9.40;99.90
48488;DHT22;34289;48.572;13.378;2023-11-21T13:08:06;9.30;99.90
48488;DHT22;34289;48.572;13.378;2023-11-21T13:10:39;9.40;99.90
48488;DHT22;34289;48.572;13.378;2023-11-21T13:13:07;9.30;99.90
48488;DHT22;34289;48.572;13.378;2023-11-21T13:15:51;9.30;99.90
48488;DHT22;34289;48.572;13.378;2023-11-21T13:18:16;9.10;99.90
48488;DHT22;34289;48.572;13.378;2023-11-21T13:20:43;9.10;99.90
48488;DHT22;34289;48.572;13.378;2023-11-21T13:23:10;9.00;99.90
48488;DHT22;34289;48.572;13.378;2023-11-21T13:25:44;9.00;99.90
48488;DHT22;34289;48.572;13.378;2023-11-21T13:28:11;9.10;99.90
48488;DHT22;34289;48.572;13.378;2023-11-21T13:30:38;9.30;99.90
48488;DHT22;34289;48.572;13.378;2023-11-21T13:33:06;9.00;99.90
48488;DHT22;34289;48.572;13.378;2023-11-21T13:35:34;8.90;99.90
48488;DHT22;34289;48.572;13.378;2023-11-21T13:38:05;8.90;99.90
48488;DHT22;34289;48.572;13.378;2023-11-21T13:40:32;9.00;99.90
48488;DHT22;34289;48.572;13.378;2023-11-21T13:42:59;8.90;99.90
48488;DHT22;34289;48.572;13.378;2023-11-21T13:45:29;9.10;99.90
48488;DHT22;34289;48.572;13.378;2023-11-21T13:47:56;9.00;99.90
48488;DHT22;34289;48.572;13.378;2023-11-21T13:50:27;8.60;99.90
48488;DHT22;34289;48.572;13.378;2023-11-21T13:52:59;9.00;99.90
48488;DHT22;34289;48.572;13.378;2023-11-21T13:55:34;8.90;99.90
48488;DHT22;34289;48.572;13.378;2023-11-21T13:58:01;9.00;99.90
48488;DHT22;34289;48.572;13.378;2023-11-21T14:00:34;9.50;99.90
48488;DHT22;34289;48.572;13.378;2023-11-21T14:03:22;9.30;99.90
48488;DHT22;34289;48.572;13.378;2023-11-21T14:05:48;8.90;99.90
48488;DHT22;34289;48.572;13.378;2023-11-21T14:08:18;8.80;99.90
48488;DHT22;34289;48.572;13.378;2023-11-21T14:10:45;8.80;99.90
48488;DHT22;34289;48.572;13.378;2023-11-21T14:13:16;8.70;99.90
48488;DHT22;34289;48.572;13.378;2023-11-21T14:15:42;8.60;99.90
48488;DHT22;34289;48.572;13.378;2023-11-21T14:18:12;8.70;99.90
48488;DHT22;34289;48.572;13.378;2023-11-21T14:20:41;9.00;99.90
48488;DHT22;34289;48.572;13.378;2023-11-21T14:23:07;8.70;99.90
48488;DHT22;34289;48.572;13.378;2023-11-21T14:25:37;8.60;99.90
48488;DHT22;34289;48.572;13.378;2023-11-21T14:28:03;8.50;99.90
48488;DHT22;34289;48.572;13.378;2023-11-21T14:30:31;8.50;99.90
48488;DHT22;34289;48.572;13.378;2023-11-21T14:32:58;8.10;99.90
48488;DHT22;34289;48.572;13.378;2023-11-21T14:35:24;8.40;99.90
48488;DHT22;34289;48.572;13.378;2023-11-21T14:37:52;8.50;99.90
48488;DHT22;34289;48.572;13.378;2023-11-21T14:40:18;8.40;99.90
48488;DHT22;34289;48.572;13.378;2023-11-21T14:42:47;8.40;99.90
48488;DHT22;34289;48.572;13.378;2023-11-21T14:45:13;8.40;99.90
48488;DHT22;34289;48.572;13.378;2023-11-21T14:47:45;8.40;99.90
48488;DHT22;34289;48.572;13.378;2023-11-21T14:50:17;8.40;99.90
48488;DHT22;34289;48.572;13.378;2023-11-21T14:53:01;8.40;99.90
48488;DHT22;34289;48.572;13.378;2023-11-21T14:55:30;8.70;99.90
48488;DHT22;34289;48.572;13.378;2023-11-21T14:58:18;8.70;99.90
48488;DHT22;34289;48.572;13.378;2023-11-21T15:00:56;8.40;99.90
48488;DHT22;34289;48.572;13.378;2023-11-21T15:03:26;8.40;99.90
48488;DHT22;34289;48.572;13.378;2023-11-21T15:05:59;8.90;99.90
48488;DHT22;34289;48.572;13.378;2023-11-21T15:08:35;8.40;99.90
48488;DHT22;34289;48.572;13.378;2023-11-21T15:11:02;8.40;99.90
48488;DHT22;34289;48.572;13.378;2023-11-21T15:13:32;8.30;99.90
48488;DHT22;34289;48.572;13.378;2023-11-21T15:15:58;8.60;99.90
48488;DHT22;34289;48.572;13.378;2023-11-21T15:18:33;8.10;99.90
48488;DHT22;34289;48.572;13.378;2023-11-21T15:20:59;8.20;99.90
48488;DHT22;34289;48.572;13.378;2023-11-21T15:23:25;8.10;99.90
48488;DHT22;34289;48.572;13.378;2023-11-21T15:25:53;8.20;99.90
48488;DHT22;34289;48.572;13.378;2023-11-21T15:28:19;8.30;99.90
48488;DHT22;34289;48.572;13.378;2023-11-21T15:30:45;7.90;99.90
48488;DHT22;34289;48.572;13.378;2023-11-21T15:33:13;8.00;99.90
48488;DHT22;34289;48.572;13.378;2023-11-21T15:35:39;8.00;99.90
48488;DHT22;34289;48.572;13.378;2023-11-21T15:38:06;8.10;99.90
48488;DHT22;34289;48.572;13.378;2023-11-21T15:40:33;8.00;99.90
48488;DHT22;34289;48.572;13.378;2023-11-21T15:42:59;7.80;99.90
48488;DHT22;34289;48.572;13.378;2023-11-21T15:45:25;7.90;99.90
48488;DHT22;34289;48.572;13.378;2023-11-21T15:47:51;8.20;99.90
48488;DHT22;34289;48.572;13.378;2023-11-21T15:50:19;8.00;99.90
48488;DHT22;34289;48.572;13.378;2023-11-21T15:52:44;8.20;99.90